In Rescue
 
Open Full Screen Window  High Contrast Mode
Wind Gusting 14 knots
08
January 20, 2021 4:42 PM EST
Weather Information
Wind Direction
  170 °
Wind Speed
  08 kt (9 mph)
Wind Gust
  14 kt (16 mph)
Altimeter
29.78 in
Visibility
10 SM
Temperature
-05° C
23° F
Dewpoint
-11° C
12° F
Humidity
63%
1hr Rain Fall
00.00 in.
24hr Rain Fall
00.00 in.
Sky Condition
Overcast @ 10,000 ft
Broken @ 2,900 ft
MVFR

METAR KDRM 202142Z AUTO 17008G14KT 10SM BKN029 OVC100 M05/M11 A2978 RMK AO2 T10551110

FAA Disclaimer: The data displayed is for advisory purposes only and is not to be used for flight planning or operations.